createdAt,value
2023-04-08T00:02:06.681Z,99612.44
2023-04-08T00:05:09.849Z,99608.25
2023-04-08T00:08:13.580Z,99601.59
2023-04-08T00:11:16.406Z,99606.25
2023-04-08T00:14:19.259Z,99598.22
2023-04-08T00:17:23.511Z,99604.28
2023-04-08T00:20:26.492Z,99595.53
2023-04-08T00:23:29.320Z,99596.53
2023-04-08T00:26:32.385Z,99596.72
2023-04-08T00:29:35.212Z,99601.22
2023-04-08T00:32:39.608Z,99608.41
2023-04-08T00:35:42.553Z,99606.75
2023-04-08T00:38:45.384Z,99603.22
2023-04-08T00:41:48.178Z,99595.34
2023-04-08T00:44:50.994Z,99602.53
2023-04-08T00:47:55.149Z,99595.50
2023-04-08T00:50:57.975Z,99601.84
2023-04-08T00:54:01.680Z,99596.81
2023-04-08T00:57:05.328Z,99600.97
2023-04-08T01:00:09.707Z,99601.53
2023-04-08T01:03:16.302Z,99602.84
2023-04-08T01:06:22.971Z,99598.34
2023-04-08T01:09:29.256Z,99607.19
2023-04-08T01:12:33.155Z,99611.72
2023-04-08T01:15:37.773Z,99607.19
2023-04-08T01:18:42.818Z,99614.22
2023-04-08T01:21:45.959Z,99617.75
2023-04-08T01:24:49.155Z,99622.25
2023-04-08T01:27:56.517Z,99622.41
2023-04-08T01:31:00.620Z,99622.25
2023-04-08T01:34:06.452Z,99624.78
2023-04-08T01:37:09.438Z,99622.41
2023-04-08T01:40:12.882Z,99624.09
2023-04-08T01:43:18.345Z,99624.94
2023-04-08T01:46:21.946Z,99632.78
2023-04-08T01:49:25.858Z,99632.59
2023-04-08T01:52:30.109Z,99632.91
2023-04-08T01:55:33.398Z,99647.28
2023-04-08T01:58:39.881Z,99639.94
2023-04-08T02:01:45.283Z,99644.91
2023-04-08T02:04:48.430Z,99638.50
2023-04-08T02:07:52.118Z,99634.53
2023-04-08T02:10:54.978Z,99631.53
2023-04-08T02:13:59.557Z,99638.94
2023-04-08T02:17:06.699Z,99628.56
2023-04-08T02:20:11.635Z,99632.75
2023-04-08T02:23:16.559Z,99641.94
2023-04-08T02:26:20.204Z,99634.59
2023-04-08T02:29:25.310Z,99642.31
2023-04-08T02:32:28.865Z,99633.75
2023-04-08T02:35:32.054Z,99633.91
2023-04-08T02:38:34.908Z,99634.59
2023-04-08T02:41:37.704Z,99630.22
2023-04-08T02:44:42.081Z,99639.25
2023-04-08T02:47:44.930Z,99646.75
2023-04-08T02:50:47.795Z,99648.13
2023-04-08T02:53:50.552Z,99642.78
2023-04-08T02:56:53.389Z,99646.28
2023-04-08T02:59:57.625Z,99647.59
2023-04-08T03:03:00.536Z,99657.94
2023-04-08T03:06:03.499Z,99661.28
2023-04-08T03:09:07.241Z,99664.25
2023-04-08T03:12:10.066Z,99665.41
2023-04-08T03:15:14.256Z,99660.22
2023-04-08T03:18:17.841Z,99666.25
2023-04-08T03:21:21.062Z,99656.94
2023-04-08T03:24:23.838Z,99671.16
2023-04-08T03:27:26.890Z,99661.28
2023-04-08T03:30:32.830Z,99664.78
2023-04-08T03:33:35.870Z,99666.31
2023-04-08T03:36:38.575Z,99671.31
2023-04-08T03:39:41.473Z,99669.97
2023-04-08T03:42:44.249Z,99679.56
2023-04-08T03:45:48.468Z,99684.91
2023-04-08T03:48:51.562Z,99687.59
2023-04-08T03:51:54.452Z,99693.78
2023-04-08T03:54:57.332Z,99692.78
2023-04-08T03:58:00.194Z,99693.78
2023-04-08T04:01:04.327Z,99699.13
2023-04-08T04:04:07.356Z,99699.97
2023-04-08T04:07:10.361Z,99698.28
2023-04-08T04:10:13.164Z,99699.13
2023-04-08T04:13:15.997Z,99701.94
2023-04-08T04:16:20.244Z,99705.47
2023-04-08T04:19:23.085Z,99705.31
2023-04-08T04:22:25.839Z,99701.63
2023-04-08T04:25:28.629Z,99707.16
2023-04-08T04:28:31.429Z,99713.19
2023-04-08T04:31:35.677Z,99720.22
2023-04-08T04:34:38.554Z,99718.22
2023-04-08T04:37:41.718Z,99716.25
2023-04-08T04:40:45.215Z,99722.13
2023-04-08T04:43:48.010Z,99722.28
2023-04-08T04:46:52.218Z,99723.50
2023-04-08T04:49:55.008Z,99719.97
2023-04-08T04:52:57.838Z,99728.00
2023-04-08T04:56:02.144Z,99730.69
2023-04-08T04:59:06.007Z,99728.69
2023-04-08T05:02:10.532Z,99735.88
2023-04-08T05:05:13.598Z,99736.03
2023-04-08T05:08:16.425Z,99741.38
2023-04-08T05:11:19.272Z,99744.59
2023-04-08T05:14:22.014Z,99737.25
2023-04-08T05:17:27.301Z,99745.97
2023-04-08T05:20:30.341Z,99745.13
2023-04-08T05:23:33.180Z,99744.41
2023-04-08T05:26:36.475Z,99746.25
2023-04-08T05:29:39.226Z,99751.16
2023-04-08T05:32:43.482Z,99757.81
2023-04-08T05:35:46.420Z,99759.50
2023-04-08T05:38:49.431Z,99763.03
2023-04-08T05:41:52.455Z,99758.34
2023-04-08T05:44:55.474Z,99755.50
2023-04-08T05:47:59.765Z,99764.22
2023-04-08T05:51:02.700Z,99762.25
2023-04-08T05:54:05.695Z,99766.78
2023-04-08T05:57:10.379Z,99772.25
2023-04-08T06:00:13.695Z,99774.94
2023-04-08T06:03:20.531Z,99763.09
2023-04-08T06:06:23.951Z,99779.31
2023-04-08T06:09:26.999Z,99777.31
2023-04-08T06:12:30.118Z,99773.81
2023-04-08T06:15:32.970Z,99782.66
2023-04-08T06:18:37.236Z,99782.50
2023-04-08T06:21:40.048Z,99785.88
2023-04-08T06:24:42.832Z,99790.53
2023-04-08T06:27:45.715Z,99785.72
2023-04-08T06:30:48.518Z,99786.69
2023-04-08T06:33:52.823Z,99794.22
2023-04-08T06:36:55.632Z,99794.06
2023-04-08T06:39:58.365Z,99795.22
2023-04-08T06:43:01.200Z,99797.72
2023-04-08T06:46:04.081Z,99800.25
2023-04-08T06:49:08.323Z,99796.72
2023-04-08T06:52:12.554Z,99809.13
2023-04-08T06:55:16.661Z,99806.16
2023-04-08T06:58:19.480Z,99805.16
2023-04-08T07:01:22.444Z,99806.00
2023-04-08T07:04:26.881Z,99809.22
2023-04-08T07:07:29.828Z,99811.91
2023-04-08T07:10:32.612Z,99807.50
2023-04-08T07:13:35.441Z,99808.22
2023-04-08T07:16:38.303Z,99815.41
2023-04-08T07:19:44.206Z,99824.41
2023-04-08T07:22:47.081Z,99818.22
2023-04-08T07:25:49.915Z,99815.41
2023-04-08T07:28:53.244Z,99824.13
2023-04-08T07:31:56.313Z,99828.63
2023-04-08T07:35:01.555Z,99821.28
2023-04-08T07:38:04.417Z,99819.59
2023-04-08T07:41:07.304Z,99815.09
2023-04-08T07:44:10.141Z,99816.94
2023-04-08T07:47:13.199Z,99816.94
2023-04-08T07:50:17.472Z,99815.25
2023-04-08T07:53:21.184Z,99809.22
2023-04-08T07:56:25.530Z,99816.94
2023-04-08T07:59:28.358Z,99805.53
2023-04-08T08:02:32.300Z,99812.56
2023-04-08T08:05:37.074Z,99808.91
2023-04-08T08:08:39.934Z,99808.44
2023-04-08T08:11:42.670Z,99806.88
2023-04-08T08:14:45.545Z,99805.22
2023-04-08T08:17:48.409Z,99812.97
2023-04-08T08:20:52.656Z,99809.13
2023-04-08T08:23:56.981Z,99809.97
2023-04-08T08:26:59.826Z,99820.66
2023-04-08T08:30:02.608Z,99836.06
2023-04-08T08:33:05.502Z,99825.19
2023-04-08T08:36:09.821Z,99822.66
2023-04-08T08:39:12.613Z,99825.19
2023-04-08T08:42:22.463Z,99823.19
2023-04-08T08:45:25.267Z,99837.25
2023-04-08T08:48:28.251Z,99830.09
2023-04-08T08:51:32.970Z,99839.25
2023-04-08T08:54:35.847Z,99833.59
2023-04-08T08:57:38.679Z,99842.47
2023-04-08T09:00:45.056Z,99843.47
2023-04-08T09:03:48.255Z,99844.31
2023-04-08T09:07:09.527Z,99851.34
2023-04-08T09:10:12.341Z,99846.84
2023-04-08T09:13:15.132Z,99846.69
2023-04-08T09:16:19.032Z,99849.38
2023-04-08T09:19:22.019Z,99853.56
2023-04-08T09:22:26.974Z,99854.97
2023-04-08T09:25:30.890Z,99854.13
2023-04-08T09:28:34.092Z,99853.13
2023-04-08T09:31:38.455Z,99851.84
2023-04-08T09:34:41.279Z,99866.22
2023-04-08T09:37:45.598Z,99861.53
2023-04-08T09:40:48.381Z,99863.38
2023-04-08T09:43:52.633Z,99862.06
2023-04-08T09:47:02.521Z,99868.13
2023-04-08T09:50:09.122Z,99858.72
2023-04-08T09:53:15.527Z,99854.88
2023-04-08T09:56:18.555Z,99862.78
2023-04-08T09:59:23.549Z,99857.41
2023-04-08T10:02:31.142Z,99868.13
2023-04-08T10:05:34.521Z,99864.75
2023-04-08T10:08:38.897Z,99867.41
2023-04-08T10:11:41.754Z,99862.06
2023-04-08T10:15:04.692Z,99858.72
2023-04-08T10:18:26.188Z,99866.91
2023-04-08T10:21:35.792Z,99872.09
2023-04-08T10:24:39.969Z,99871.22
2023-04-08T10:27:42.782Z,99863.59
2023-04-08T10:30:45.974Z,99861.22
2023-04-08T10:33:49.021Z,99862.28
2023-04-08T10:36:52.229Z,99866.97
2023-04-08T10:39:56.854Z,99863.66
2023-04-08T10:43:00.003Z,99868.19
2023-04-08T10:46:02.965Z,99873.94
2023-04-08T10:49:05.798Z,99866.34
2023-04-08T10:52:09.223Z,99868.63
2023-04-08T10:55:13.465Z,99870.88
2023-04-08T10:58:16.468Z,99865.81
2023-04-08T11:01:19.977Z,99861.00
2023-04-08T11:04:23.768Z,99861.00
2023-04-08T11:07:27.224Z,99856.47
2023-04-08T11:10:32.035Z,99847.25
2023-04-08T11:13:34.824Z,99847.13
2023-04-08T11:16:38.849Z,99856.00
2023-04-08T11:19:41.844Z,99856.47
2023-04-08T11:22:45.652Z,99850.09
2023-04-08T11:25:50.019Z,99853.16
2023-04-08T11:28:53.359Z,99855.31
2023-04-08T11:31:56.399Z,99848.44
2023-04-08T11:35:01.372Z,99853.94
2023-04-08T11:38:06.279Z,99848.22
2023-04-08T11:41:11.684Z,99848.75
2023-04-08T11:44:14.521Z,99851.56
2023-04-08T11:47:17.410Z,99852.78
2023-04-08T11:50:29.903Z,99847.25
2023-04-08T11:53:32.887Z,99846.44
2023-04-08T12:00:10.926Z,99843.22
2023-04-08T12:03:15.177Z,99840.78
2023-04-08T12:06:18.017Z,99842.06
2023-04-08T12:09:20.927Z,99839.38
2023-04-08T12:12:23.760Z,99844.59
2023-04-08T12:15:28.047Z,99838.94
2023-04-08T12:18:30.780Z,99836.75
2023-04-08T12:21:34.018Z,99839.94
2023-04-08T12:24:36.827Z,99846.47
2023-04-08T12:27:39.802Z,99840.59
2023-04-08T12:30:43.936Z,99835.25
2023-04-08T12:33:46.694Z,99840.78
2023-04-08T12:36:49.996Z,99836.41
2023-04-08T12:39:52.807Z,99834.41
2023-04-08T12:42:55.567Z,99833.06
2023-04-08T12:45:59.819Z,99836.53
2023-04-08T12:49:04.534Z,99833.72
2023-04-08T12:52:08.651Z,99840.56
2023-04-08T12:55:11.835Z,99830.00
2023-04-08T12:58:14.601Z,99833.13
2023-04-08T13:01:18.889Z,99828.28
2023-04-08T13:04:21.702Z,99828.66
2023-04-08T13:07:24.565Z,99827.16
2023-04-08T13:10:27.749Z,99829.34
2023-04-08T13:13:30.518Z,99821.19
2023-04-08T13:16:34.674Z,99819.47
2023-04-08T13:19:37.533Z,99818.63
2023-04-08T13:22:41.507Z,99814.09
2023-04-08T13:25:45.510Z,99805.38
2023-04-08T13:28:56.706Z,99800.19
2023-04-08T13:32:02.600Z,99796.97
2023-04-08T13:35:05.720Z,99799.34
2023-04-08T13:38:08.662Z,99796.34
2023-04-08T13:41:11.460Z,99795.81
2023-04-08T13:44:14.257Z,99787.19
2023-04-08T13:47:18.483Z,99796.97
2023-04-08T13:50:21.239Z,99789.38
2023-04-08T13:53:24.068Z,99796.56
2023-04-08T13:56:26.928Z,99793.84
2023-04-08T13:59:30.769Z,99801.66
2023-04-08T14:02:35.045Z,99801.09
2023-04-08T14:05:37.929Z,99795.59
2023-04-08T14:08:40.853Z,99799.41
2023-04-08T14:11:43.605Z,99793.59
2023-04-08T14:14:46.417Z,99796.75
2023-04-08T14:17:50.578Z,99797.66
2023-04-08T14:20:53.449Z,99790.06
2023-04-08T14:23:56.196Z,99789.78
2023-04-08T14:26:59.175Z,99795.75
2023-04-08T14:30:02.027Z,99789.91
2023-04-08T14:33:06.456Z,99804.22
2023-04-08T14:36:09.436Z,99797.44
2023-04-08T14:39:12.531Z,99793.16
2023-04-08T14:42:16.707Z,99791.84
2023-04-08T14:45:19.647Z,99800.09
2023-04-08T14:48:25.968Z,99797.84
2023-04-08T14:51:28.783Z,99792.94
2023-04-08T14:54:31.583Z,99798.97
2023-04-08T14:57:34.507Z,99807.69
2023-04-08T15:00:37.780Z,99795.16
2023-04-08T15:03:42.123Z,99804.34
2023-04-08T15:06:45.096Z,99796.34
2023-04-08T15:09:47.953Z,99806.59
2023-04-08T15:12:50.755Z,99807.47
2023-04-08T15:15:53.545Z,99810.88
2023-04-08T15:18:59.953Z,99813.38
2023-04-08T15:22:02.758Z,99811.53
2023-04-08T15:25:06.257Z,99813.72
2023-04-08T15:28:09.442Z,99820.03
2023-04-08T15:31:12.679Z,99818.56
2023-04-08T15:34:16.908Z,99814.38
2023-04-08T15:37:19.723Z,99824.72
2023-04-08T15:40:22.657Z,99815.94
2023-04-08T15:43:27.206Z,99817.88
2023-04-08T15:46:30.082Z,99820.84
2023-04-08T15:49:34.289Z,99828.00
2023-04-08T15:52:37.107Z,99834.34
2023-04-08T15:55:40.680Z,99823.81
2023-04-08T15:58:43.716Z,99834.22
2023-04-08T16:01:46.885Z,99823.09
2023-04-08T16:04:52.212Z,99832.63
2023-04-08T16:07:55.156Z,99841.63
2023-04-08T16:11:01.376Z,99850.16
2023-04-08T16:14:05.197Z,99843.56
2023-04-08T16:17:07.978Z,99851.91
2023-04-08T16:20:12.781Z,99852.91
2023-04-08T16:23:15.861Z,99859.66
2023-04-08T16:26:18.695Z,99858.66
2023-04-08T16:29:22.782Z,99861.16
2023-04-08T16:32:26.247Z,99862.63
2023-04-08T16:35:30.371Z,99875.63
2023-04-08T16:38:33.191Z,99874.91
2023-04-08T16:41:36.804Z,99876.34
2023-04-08T16:44:39.614Z,99895.56
2023-04-08T16:47:42.718Z,99887.22
2023-04-08T16:50:47.011Z,99897.69
2023-04-08T16:53:49.891Z,99897.03
2023-04-08T16:56:52.697Z,99908.28
2023-04-08T16:59:55.799Z,99906.72
2023-04-08T17:02:59.450Z,99905.44
2023-04-08T17:06:10.144Z,99908.13
2023-04-08T17:09:12.987Z,99922.28
2023-04-08T17:12:15.990Z,99920.03
2023-04-08T17:15:18.855Z,99920.28
2023-04-08T17:18:21.633Z,99923.56
2023-04-08T17:21:26.915Z,99931.19
2023-04-08T17:24:29.681Z,99925.06
2023-04-08T17:27:32.482Z,99933.28
2023-04-08T17:30:35.421Z,99928.50
2023-04-08T17:33:38.222Z,99930.50
2023-04-08T17:36:42.584Z,99935.53
2023-04-08T17:39:45.350Z,99945.94
2023-04-08T17:42:48.150Z,99944.09
2023-04-08T17:45:51.744Z,99947.22
2023-04-08T17:48:54.585Z,99943.41
2023-04-08T17:51:58.898Z,99945.53
2023-04-08T17:55:03.544Z,99942.69
2023-04-08T17:58:06.412Z,99940.28
2023-04-08T18:01:09.242Z,99943.84
2023-04-08T18:04:14.301Z,99952.03
2023-04-08T18:07:18.577Z,99945.38
2023-04-08T18:10:23.119Z,99943.44
2023-04-08T18:13:25.981Z,99952.78
2023-04-08T18:16:28.876Z,99952.13
2023-04-08T18:19:31.695Z,99953.94
2023-04-08T18:22:35.904Z,99955.16
2023-04-08T18:25:38.742Z,99949.03
2023-04-08T18:28:41.521Z,99955.34
2023-04-08T18:31:44.313Z,99958.16
2023-04-08T18:34:47.194Z,99959.00
2023-04-08T18:37:51.439Z,99956.94
2023-04-08T18:40:54.210Z,99960.47
2023-04-08T18:43:58.148Z,99959.28
2023-04-08T18:47:01.160Z,99968.41
2023-04-08T18:50:04.028Z,99965.94
2023-04-08T18:53:08.209Z,99965.91
2023-04-08T18:56:15.152Z,99967.06
2023-04-08T18:59:17.998Z,99969.69
2023-04-08T19:02:21.774Z,99966.91
2023-04-08T19:05:24.582Z,99975.47
2023-04-08T19:08:28.753Z,99983.78
2023-04-08T19:11:31.666Z,99981.13
2023-04-08T19:14:34.402Z,99977.59
2023-04-08T19:17:37.229Z,99985.59
2023-04-08T19:20:40.083Z,99977.84
2023-04-08T19:23:44.309Z,99983.72
2023-04-08T19:26:47.054Z,99982.03
2023-04-08T19:29:49.947Z,99979.38
2023-04-08T19:32:53.893Z,99981.91
2023-04-08T19:35:57.172Z,99978.25
2023-04-08T19:39:01.705Z,99970.94
2023-04-08T19:42:05.035Z,99969.41
2023-04-08T19:45:08.353Z,99970.25
2023-04-08T19:48:11.271Z,99970.25
2023-04-08T19:51:17.076Z,99968.53
2023-04-08T19:54:21.819Z,99961.91
2023-04-08T19:57:24.632Z,99968.25
2023-04-08T20:00:28.995Z,99965.03
2023-04-08T20:03:32.072Z,99967.56
2023-04-08T20:06:35.378Z,99974.28
2023-04-08T20:09:39.523Z,99975.00
2023-04-08T20:12:42.414Z,99970.94
2023-04-08T20:15:45.487Z,99976.56
2023-04-08T20:18:48.426Z,99973.75
2023-04-08T20:21:51.370Z,99973.88
2023-04-08T20:24:55.552Z,99970.63
2023-04-08T20:27:58.344Z,99954.75
2023-04-08T20:31:01.511Z,99962.50
2023-04-08T20:34:04.624Z,99964.06
2023-04-08T20:37:07.765Z,99961.50
2023-04-08T20:40:12.329Z,99955.88
2023-04-08T20:43:15.061Z,99954.19
2023-04-08T20:46:17.985Z,99956.56
2023-04-08T20:49:20.872Z,99951.94
2023-04-08T20:52:23.598Z,99955.88
2023-04-08T20:55:27.777Z,99943.22
2023-04-08T20:58:30.572Z,99942.78
2023-04-08T21:01:33.293Z,99943.06
2023-04-08T21:04:36.128Z,99930.41
2023-04-08T21:07:44.355Z,99933.75
2023-04-08T21:10:48.619Z,99936.28
2023-04-08T21:13:51.416Z,99930.53
2023-04-08T21:16:54.200Z,99930.53
2023-04-08T21:19:57.055Z,99933.66
2023-04-08T21:23:00.607Z,99939.38
2023-04-08T21:26:04.787Z,99934.75
2023-04-08T21:29:07.579Z,99937.69
2023-04-08T21:32:10.747Z,99937.84
2023-04-08T21:35:13.710Z,99930.13
2023-04-08T21:38:16.735Z,99933.25
2023-04-08T21:41:21.427Z,99935.19
2023-04-08T21:44:24.228Z,99932.66
2023-04-08T21:47:27.086Z,99932.66
2023-04-08T21:50:29.899Z,99931.78
2023-04-08T21:53:32.643Z,99934.50
2023-04-08T21:56:36.803Z,99931.53
2023-04-08T21:59:40.743Z,99937.31
2023-04-08T22:02:43.926Z,99935.59
2023-04-08T22:05:46.892Z,99936.31
2023-04-08T22:08:51.000Z,99930.53
2023-04-08T22:11:56.386Z,99938.84
2023-04-08T22:14:59.119Z,99929.19
2023-04-08T22:18:02.113Z,99927.88
2023-04-08T22:21:05.027Z,99929.47
2023-04-08T22:24:07.831Z,99929.03
2023-04-08T22:27:12.219Z,99919.97
2023-04-08T22:30:15.058Z,99920.50
2023-04-08T22:33:17.809Z,99921.22
2023-04-08T22:36:20.607Z,99927.25
2023-04-08T22:39:26.108Z,99910.34
2023-04-08T22:42:30.638Z,99914.72
2023-04-08T22:45:33.464Z,99920.38
2023-04-08T22:48:36.290Z,99919.06
2023-04-08T22:51:39.703Z,99918.47
2023-04-08T22:54:42.496Z,99929.94
2023-04-08T22:57:46.664Z,99926.84
2023-04-08T23:00:49.495Z,99931.78
2023-04-08T23:03:52.231Z,99926.16
2023-04-08T23:06:55.044Z,99929.28
2023-04-08T23:09:57.767Z,99918.56
2023-04-08T23:13:02.064Z,99926.22
2023-04-08T23:16:04.982Z,99931.34
2023-04-08T23:19:07.904Z,99931.03
2023-04-08T23:22:10.987Z,99930.91
2023-04-08T23:25:13.897Z,99925.69
2023-04-08T23:28:18.066Z,99933.72
2023-04-08T23:31:20.992Z,99927.69
2023-04-08T23:34:24.799Z,99926.69
2023-04-08T23:37:27.988Z,99934.88
2023-04-08T23:40:30.765Z,99928.69
2023-04-08T23:43:35.360Z,99925.31
2023-04-08T23:46:38.145Z,99937.97
2023-04-08T23:49:40.978Z,99938.81
2023-04-08T23:52:43.834Z,99936.97
2023-04-08T23:55:46.604Z,99935.59
2023-04-08T23:58:51.032Z,99938.97
